createdAt,value
2022-12-01T00:01:42.253Z,16.27
2022-12-01T00:04:11.267Z,15.23
2022-12-01T00:06:39.607Z,15.30
2022-12-01T00:09:25.392Z,13.10
2022-12-01T00:11:55.184Z,14.77
2022-12-01T00:14:23.896Z,15.40
2022-12-01T00:16:52.501Z,15.27
2022-12-01T00:19:21.051Z,15.50
2022-12-01T00:21:49.474Z,15.00
2022-12-01T00:24:18.070Z,14.43
2022-12-01T00:26:46.653Z,14.17
2022-12-01T00:29:16.875Z,14.87
2022-12-01T00:31:45.301Z,14.30
2022-12-01T00:34:22.907Z,14.33
2022-12-01T00:36:51.535Z,13.40
2022-12-01T00:39:19.810Z,13.57
2022-12-01T00:41:48.189Z,14.93
2022-12-01T00:44:18.069Z,14.33
2022-12-01T00:46:46.597Z,13.83
2022-12-01T00:49:15.501Z,14.90
2022-12-01T00:51:43.994Z,13.07
2022-12-01T00:54:12.396Z,15.20
2022-12-01T00:56:41.035Z,14.00
2022-12-01T00:59:09.630Z,13.60
2022-12-01T01:01:39.890Z,12.37
2022-12-01T01:04:08.538Z,14.40
2022-12-01T01:06:38.117Z,13.97
2022-12-01T01:09:06.489Z,14.73
2022-12-01T01:11:35.022Z,14.53
2022-12-01T01:14:03.695Z,15.13
2022-12-01T01:16:32.149Z,13.93
2022-12-01T01:19:02.061Z,14.33
2022-12-01T01:21:30.479Z,13.83
2022-12-01T01:23:58.933Z,14.03
2022-12-01T01:26:30.243Z,14.80
2022-12-01T01:29:01.156Z,13.53
2022-12-01T01:31:31.183Z,13.60
2022-12-01T01:34:01.145Z,14.67
2022-12-01T01:36:29.745Z,14.07
2022-12-01T01:38:58.236Z,13.90
2022-12-01T01:41:26.879Z,14.63
2022-12-01T01:43:57.251Z,15.10
2022-12-01T01:46:27.674Z,14.43
2022-12-01T01:49:00.170Z,14.27
2022-12-01T01:51:33.307Z,14.23
2022-12-01T01:54:05.754Z,14.30
2022-12-01T01:56:35.500Z,13.80
2022-12-01T01:59:04.545Z,14.67
2022-12-01T02:01:33.250Z,14.60
2022-12-01T02:04:02.506Z,14.73
2022-12-01T02:06:32.252Z,14.40
2022-12-01T02:09:00.821Z,13.07
2022-12-01T02:11:52.934Z,14.77
2022-12-01T02:14:40.663Z,14.77
2022-12-01T02:17:17.655Z,13.00
2022-12-01T02:20:03.598Z,14.07
2022-12-01T02:22:42.935Z,13.97
2022-12-01T02:25:21.743Z,14.23
2022-12-01T02:28:07.709Z,13.47
2022-12-01T02:30:41.476Z,13.77
2022-12-01T02:33:16.089Z,13.73
2022-12-01T02:35:48.982Z,13.77
2022-12-01T02:38:24.991Z,12.60
2022-12-01T02:40:57.770Z,14.00
2022-12-01T02:43:30.443Z,12.80
2022-12-01T02:46:04.678Z,13.27
2022-12-01T02:48:35.971Z,14.17
2022-12-01T02:51:09.084Z,13.33
2022-12-01T02:53:37.568Z,15.27
2022-12-01T02:56:10.633Z,14.83
2022-12-01T02:58:39.399Z,13.87
2022-12-01T03:01:19.404Z,14.47
2022-12-01T03:03:59.927Z,13.67
2022-12-01T03:06:38.138Z,13.83
2022-12-01T03:09:11.247Z,14.13
2022-12-01T03:11:46.886Z,12.50
2022-12-01T03:14:22.118Z,13.17
2022-12-01T03:16:54.486Z,11.83
2022-12-01T03:19:28.712Z,13.57
2022-12-01T03:22:01.309Z,13.30
2022-12-01T03:24:33.026Z,13.40
2022-12-01T03:27:02.787Z,13.57
2022-12-01T03:29:33.792Z,12.73
2022-12-01T03:32:05.863Z,13.47
2022-12-01T03:34:37.929Z,13.67
2022-12-01T03:37:14.088Z,13.77
2022-12-01T03:39:42.903Z,13.40
2022-12-01T03:42:16.616Z,12.57
2022-12-01T03:44:47.665Z,13.77
2022-12-01T03:47:18.773Z,12.53
2022-12-01T03:49:48.268Z,12.63
2022-12-01T03:52:24.541Z,12.17
2022-12-01T03:54:58.915Z,13.73
2022-12-01T03:57:30.394Z,12.27
2022-12-01T03:59:58.850Z,13.57
2022-12-01T04:02:30.151Z,12.50
2022-12-01T04:04:58.682Z,12.67
2022-12-01T04:07:27.162Z,13.43
2022-12-01T04:09:55.703Z,13.97
2022-12-01T04:12:33.093Z,13.90
2022-12-01T04:15:02.853Z,12.47
2022-12-01T04:17:32.606Z,13.50
2022-12-01T04:20:01.338Z,12.53
2022-12-01T04:22:29.680Z,14.10
2022-12-01T04:24:58.199Z,14.30
2022-12-01T04:27:26.794Z,15.50
2022-12-01T04:29:55.078Z,14.33
2022-12-01T04:32:23.511Z,13.60
2022-12-01T04:34:53.589Z,15.03
2022-12-01T04:37:22.239Z,14.27
2022-12-01T04:39:50.880Z,14.63
2022-12-01T04:42:20.856Z,14.67
2022-12-01T04:44:49.325Z,14.30
2022-12-01T04:47:17.809Z,13.90
2022-12-01T04:49:46.470Z,13.70
2022-12-01T04:52:16.522Z,14.47
2022-12-01T04:54:45.162Z,14.10
2022-12-01T04:57:13.636Z,14.93
2022-12-01T04:59:42.000Z,14.13
2022-12-01T05:02:10.570Z,14.63
2022-12-01T05:04:41.390Z,14.63
2022-12-01T05:07:09.722Z,15.03
2022-12-01T05:09:39.555Z,14.63
2022-12-01T05:12:08.308Z,15.53
2022-12-01T05:14:36.814Z,15.43
2022-12-01T05:17:05.352Z,14.33
2022-12-01T05:19:51.306Z,14.47
2022-12-01T05:22:36.496Z,15.07
2022-12-01T05:25:10.125Z,15.50
2022-12-01T05:27:38.575Z,15.97
2022-12-01T05:30:08.257Z,16.00
2022-12-01T05:32:36.690Z,15.33
2022-12-01T05:35:05.772Z,16.17
2022-12-01T05:37:34.709Z,16.00
2022-12-01T05:40:03.257Z,15.17
2022-12-01T05:42:33.135Z,16.07
2022-12-01T05:45:01.586Z,16.03
2022-12-01T05:47:30.049Z,16.13
2022-12-01T05:50:03.632Z,15.40
2022-12-01T05:52:34.670Z,16.40
2022-12-01T05:55:03.321Z,16.63
2022-12-01T05:57:33.504Z,18.23
2022-12-01T06:00:05.866Z,16.40
2022-12-01T06:02:39.853Z,16.63
2022-12-01T06:05:09.424Z,16.87
2022-12-01T06:07:40.441Z,16.90
2022-12-01T06:10:09.925Z,15.97
2022-12-01T06:12:40.158Z,15.67
2022-12-01T06:15:09.838Z,15.87
2022-12-01T06:17:40.468Z,16.07
2022-12-01T06:20:10.749Z,16.07
2022-12-01T06:22:39.291Z,16.23
2022-12-01T06:25:08.918Z,15.77
2022-12-01T06:27:37.625Z,16.43
2022-12-01T06:30:09.185Z,15.93
2022-12-01T06:32:37.919Z,16.10
2022-12-01T06:35:07.247Z,15.37
2022-12-01T06:37:35.662Z,16.93
2022-12-01T06:40:04.491Z,15.67
2022-12-01T06:42:33.132Z,15.73
2022-12-01T06:45:01.699Z,15.47
2022-12-01T06:47:32.036Z,16.77
2022-12-01T06:50:00.719Z,16.83
2022-12-01T06:52:29.358Z,15.53
2022-12-01T06:54:58.033Z,16.03
2022-12-01T06:57:26.775Z,16.53
2022-12-01T06:59:55.467Z,16.60
2022-12-01T07:02:24.686Z,17.20
2022-12-01T07:04:54.729Z,16.80
2022-12-01T07:07:23.399Z,16.87
2022-12-01T07:09:52.270Z,17.33
2022-12-01T07:12:20.840Z,17.40
2022-12-01T07:14:49.339Z,15.60
2022-12-01T07:17:17.986Z,16.07
2022-12-01T07:19:46.553Z,16.97
2022-12-01T07:22:16.748Z,16.13
2022-12-01T07:24:45.170Z,16.27
2022-12-01T07:27:13.478Z,15.90
2022-12-01T07:29:41.937Z,16.57
2022-12-01T07:32:10.480Z,15.57
2022-12-01T07:34:38.755Z,16.83
2022-12-01T07:37:07.229Z,17.43
2022-12-01T07:39:37.413Z,16.00
2022-12-01T07:42:06.032Z,16.23
2022-12-01T07:44:34.338Z,16.47
2022-12-01T07:47:02.690Z,17.70
2022-12-01T07:49:31.102Z,16.13
2022-12-01T07:51:59.396Z,17.03
2022-12-01T07:54:28.185Z,16.10
2022-12-01T07:56:58.074Z,17.03
2022-12-01T07:59:26.503Z,15.53
2022-12-01T08:01:54.879Z,17.50
2022-12-01T08:04:23.364Z,16.57
2022-12-01T08:06:51.689Z,16.77
2022-12-01T08:09:20.142Z,15.40
2022-12-01T08:11:48.713Z,15.13
2022-12-01T08:14:18.397Z,15.33
2022-12-01T08:16:46.698Z,16.23
2022-12-01T08:19:15.125Z,16.17
2022-12-01T08:21:43.415Z,15.03
2022-12-01T08:24:12.645Z,15.10
2022-12-01T08:26:40.926Z,14.90
2022-12-01T08:29:09.479Z,14.53
2022-12-01T08:31:40.263Z,15.63
2022-12-01T08:34:09.210Z,15.23
2022-12-01T08:36:37.711Z,14.73
2022-12-01T08:39:08.338Z,15.13
2022-12-01T08:41:36.630Z,15.23
2022-12-01T08:44:05.343Z,14.80
2022-12-01T08:46:35.326Z,14.47
2022-12-01T08:49:06.146Z,15.00
2022-12-01T08:51:34.689Z,17.00
2022-12-01T08:54:03.904Z,14.30
2022-12-01T08:56:35.555Z,14.60
2022-12-01T08:59:04.873Z,14.13
2022-12-01T09:01:33.880Z,14.13
2022-12-01T09:04:07.699Z,15.63
2022-12-01T09:06:40.818Z,14.30
2022-12-01T09:09:12.551Z,15.83
2022-12-01T09:11:43.820Z,14.47
2022-12-01T09:14:12.727Z,15.37
2022-12-01T09:16:42.069Z,13.80
2022-12-01T09:19:13.090Z,13.10
2022-12-01T09:21:45.297Z,14.47
2022-12-01T09:24:15.229Z,13.57
2022-12-01T09:26:44.026Z,13.40
2022-12-01T09:29:17.270Z,13.27
2022-12-01T09:31:46.049Z,14.50
2022-12-01T09:34:16.837Z,13.53
2022-12-01T09:36:47.767Z,13.30
2022-12-01T09:39:18.329Z,14.00
2022-12-01T09:41:48.976Z,13.50
2022-12-01T09:44:30.867Z,14.33
2022-12-01T09:47:05.664Z,14.30
2022-12-01T09:49:41.453Z,13.63
2022-12-01T09:52:13.254Z,12.90
2022-12-01T09:54:42.263Z,14.00
2022-12-01T09:57:17.166Z,13.60
2022-12-01T09:59:46.864Z,13.87
2022-12-01T10:02:26.120Z,13.13
2022-12-01T10:04:56.685Z,13.80
2022-12-01T10:07:29.563Z,13.30
2022-12-01T10:09:59.944Z,14.13
2022-12-01T10:12:32.055Z,13.73
2022-12-01T10:15:11.920Z,13.03
2022-12-01T10:17:44.167Z,13.07
2022-12-01T10:20:17.936Z,13.13
2022-12-01T10:23:16.254Z,14.70
2022-12-01T10:25:53.230Z,13.60
2022-12-01T10:28:37.441Z,14.10
2022-12-01T10:31:11.029Z,13.20
2022-12-01T10:33:47.852Z,14.77
2022-12-01T10:36:16.273Z,13.70
2022-12-01T10:38:44.948Z,14.13
2022-12-01T10:41:16.385Z,15.03
2022-12-01T10:43:47.007Z,13.27
2022-12-01T10:46:22.909Z,13.63
2022-12-01T10:48:56.316Z,14.77
2022-12-01T10:51:26.035Z,15.70
2022-12-01T10:54:00.832Z,16.77
2022-12-01T10:56:33.222Z,14.17
2022-12-01T10:59:08.631Z,13.20
2022-12-01T11:01:37.676Z,13.43
2022-12-01T11:04:09.151Z,13.23
2022-12-01T11:06:38.973Z,13.60
2022-12-01T11:09:09.351Z,13.33
2022-12-01T11:11:41.326Z,13.67
2022-12-01T11:14:19.081Z,13.27
2022-12-01T11:16:51.580Z,12.83
2022-12-01T11:19:32.704Z,12.73
2022-12-01T11:22:05.515Z,12.50
2022-12-01T11:24:42.839Z,12.37
2022-12-01T11:27:20.040Z,13.17
2022-12-01T11:29:51.163Z,12.17
2022-12-01T11:32:22.579Z,12.17
2022-12-01T11:34:54.578Z,12.90
2022-12-01T11:37:28.249Z,11.73
2022-12-01T11:39:57.559Z,13.07
2022-12-01T11:42:29.628Z,12.23
2022-12-01T11:45:04.987Z,12.60
2022-12-01T11:47:33.962Z,14.30
2022-12-01T11:50:08.822Z,12.03
2022-12-01T11:52:48.501Z,12.03
2022-12-01T11:55:25.890Z,12.20
2022-12-01T11:57:59.334Z,12.23
2022-12-01T12:00:30.672Z,14.63
2022-12-01T12:03:18.565Z,13.63
2022-12-01T12:09:13.104Z,13.17
2022-12-01T12:11:47.116Z,13.60
2022-12-01T12:14:29.937Z,13.43
2022-12-01T12:17:19.039Z,12.70
2022-12-01T12:20:09.179Z,13.00
2022-12-01T12:22:53.883Z,12.30
2022-12-01T12:25:29.009Z,12.40
2022-12-01T12:28:09.835Z,13.87
2022-12-01T12:30:44.702Z,15.00
2022-12-01T12:33:34.800Z,13.17
2022-12-01T12:36:13.012Z,13.87
2022-12-01T12:38:53.697Z,13.87
2022-12-01T12:41:29.859Z,12.13
2022-12-01T12:44:08.961Z,13.50
2022-12-01T12:46:44.711Z,14.20
2022-12-01T12:49:25.939Z,14.07
2022-12-01T12:52:05.027Z,12.70
2022-12-01T12:54:43.225Z,12.93
2022-12-01T12:57:20.820Z,11.97
2022-12-01T12:59:54.420Z,13.57
2022-12-01T13:02:29.316Z,12.27
2022-12-01T13:05:01.919Z,12.80
2022-12-01T13:07:36.487Z,12.33
2022-12-01T13:10:12.203Z,13.13
2022-12-01T13:12:46.748Z,12.07
2022-12-01T13:15:17.240Z,13.33
2022-12-01T13:17:53.137Z,13.70
2022-12-01T13:20:27.637Z,14.57
2022-12-01T13:22:57.412Z,13.67
2022-12-01T13:25:28.004Z,14.43
2022-12-01T13:27:58.383Z,18.03
2022-12-01T13:30:28.232Z,15.03
2022-12-01T13:33:03.648Z,17.70
2022-12-01T13:35:34.026Z,19.63
2022-12-01T13:38:24.991Z,23.63
2022-12-01T13:41:16.939Z,15.77
2022-12-01T13:43:54.425Z,14.03
2022-12-01T13:46:25.254Z,14.50
2022-12-01T13:48:56.787Z,14.37
2022-12-01T13:51:25.868Z,14.97
2022-12-01T13:53:58.802Z,14.27
2022-12-01T13:56:39.563Z,15.57
2022-12-01T13:59:40.767Z,12.83
2022-12-01T14:02:21.372Z,14.50
2022-12-01T14:04:52.791Z,14.83
2022-12-01T14:07:33.617Z,16.23
2022-12-01T14:10:22.514Z,15.20
2022-12-01T14:12:52.030Z,15.23
2022-12-01T14:15:31.534Z,13.50
2022-12-01T14:18:02.598Z,13.70
2022-12-01T14:20:35.347Z,18.37
2022-12-01T14:23:06.446Z,15.70
2022-12-01T14:25:35.447Z,14.23
2022-12-01T14:28:05.507Z,14.73
2022-12-01T14:31:00.897Z,14.53
2022-12-01T14:33:44.829Z,15.60
2022-12-01T14:36:25.137Z,15.10
2022-12-01T14:39:00.431Z,14.63
2022-12-01T14:41:31.350Z,14.77
2022-12-01T14:44:05.148Z,15.07
2022-12-01T14:46:42.511Z,15.10
2022-12-01T14:49:14.378Z,11.83
2022-12-01T14:51:46.999Z,14.67
2022-12-01T14:54:21.835Z,13.60
2022-12-01T14:56:54.123Z,14.30
2022-12-01T14:59:26.283Z,14.17
2022-12-01T15:01:56.751Z,15.57
2022-12-01T15:04:25.469Z,15.00
2022-12-01T15:06:57.336Z,16.43
2022-12-01T15:09:35.262Z,14.93
2022-12-01T15:12:07.506Z,14.23
2022-12-01T15:14:38.292Z,18.33
2022-12-01T15:17:09.245Z,20.70
2022-12-01T15:19:39.501Z,16.23
2022-12-01T15:22:18.981Z,15.93
2022-12-01T15:24:47.904Z,19.43
2022-12-01T15:27:27.107Z,18.70
2022-12-01T15:29:56.527Z,17.33
2022-12-01T15:32:25.444Z,16.30
2022-12-01T15:34:55.562Z,15.23
2022-12-01T15:37:27.681Z,16.33
2022-12-01T15:43:02.836Z,16.93
2022-12-01T15:45:31.528Z,16.70
2022-12-01T15:48:00.468Z,18.50
2022-12-01T15:50:31.326Z,16.43
2022-12-01T15:53:04.735Z,17.70
2022-12-01T15:55:36.428Z,15.80
2022-12-01T15:58:08.494Z,17.13
2022-12-01T16:00:37.449Z,15.73
2022-12-01T16:03:05.968Z,15.83
2022-12-01T16:05:37.061Z,16.97
2022-12-01T16:08:17.044Z,15.20
2022-12-01T16:10:45.876Z,16.83
2022-12-01T16:13:36.949Z,16.30
2022-12-01T16:16:20.648Z,16.00
2022-12-01T16:18:54.332Z,15.67
2022-12-01T16:21:22.928Z,17.67
2022-12-01T16:24:01.043Z,18.63
2022-12-01T16:26:30.114Z,17.33
2022-12-01T16:29:00.865Z,18.27
2022-12-01T16:31:29.623Z,19.00
2022-12-01T16:34:13.859Z,18.83
2022-12-01T16:36:47.783Z,19.20
2022-12-01T16:39:17.936Z,17.87
2022-12-01T16:41:48.024Z,18.10
2022-12-01T16:44:32.197Z,19.40
2022-12-01T16:47:00.811Z,17.13
2022-12-01T16:49:29.343Z,27.43
2022-12-01T16:52:01.125Z,23.97
2022-12-01T16:54:35.399Z,21.73
2022-12-01T16:57:04.134Z,23.40
2022-12-01T16:59:32.713Z,20.97
2022-12-01T17:02:02.238Z,21.23
2022-12-01T17:04:33.165Z,18.67
2022-12-01T17:07:01.726Z,18.03
2022-12-01T17:09:30.430Z,18.20
2022-12-01T17:12:00.725Z,19.67
2022-12-01T17:14:29.246Z,18.97
2022-12-01T17:16:58.913Z,19.47
2022-12-01T17:19:27.625Z,18.37
2022-12-01T17:21:57.043Z,17.30
2022-12-01T17:24:27.220Z,18.17
2022-12-01T17:26:55.867Z,19.93
2022-12-01T17:29:26.490Z,22.03
2022-12-01T17:31:55.014Z,20.00
2022-12-01T17:34:23.417Z,19.37
2022-12-01T17:36:54.639Z,19.37
2022-12-01T17:39:23.374Z,20.60
2022-12-01T17:41:51.987Z,20.53
2022-12-01T17:44:20.462Z,20.37
2022-12-01T17:46:50.464Z,20.33
2022-12-01T17:49:19.088Z,22.03
2022-12-01T17:51:47.777Z,21.50
2022-12-01T17:54:16.495Z,20.17
2022-12-01T17:56:45.878Z,17.53
2022-12-01T17:59:14.299Z,17.63
2022-12-01T18:01:43.265Z,16.13
2022-12-01T18:04:13.459Z,16.80
2022-12-01T18:06:41.997Z,16.23
2022-12-01T18:09:10.538Z,14.57
2022-12-01T18:11:40.087Z,15.83
2022-12-01T18:14:09.631Z,16.37
2022-12-01T18:16:38.668Z,15.63
2022-12-01T18:19:07.426Z,15.40
2022-12-01T18:21:37.708Z,16.33
2022-12-01T18:24:08.970Z,17.43
2022-12-01T18:26:39.855Z,17.03
2022-12-01T18:29:12.147Z,17.60
2022-12-01T18:31:41.272Z,18.20
2022-12-01T18:34:12.481Z,18.20
2022-12-01T18:36:42.768Z,18.20
2022-12-01T18:39:12.830Z,17.47
2022-12-01T18:41:41.530Z,16.83
2022-12-01T18:44:10.368Z,18.23
2022-12-01T18:46:39.068Z,18.27
2022-12-01T18:49:09.097Z,18.03
2022-12-01T18:51:38.714Z,21.10
2022-12-01T18:54:11.922Z,18.27
2022-12-01T18:56:43.541Z,16.90
2022-12-01T18:59:24.696Z,17.43
2022-12-01T19:01:53.486Z,15.80
2022-12-01T19:04:22.198Z,16.03
2022-12-01T19:06:50.816Z,17.70
2022-12-01T19:09:20.839Z,18.07
2022-12-01T19:11:49.730Z,16.83
2022-12-01T19:14:20.136Z,15.23
2022-12-01T19:16:49.676Z,16.60
2022-12-01T19:19:19.147Z,17.00
2022-12-01T19:21:50.396Z,15.63
2022-12-01T19:24:21.042Z,16.67
2022-12-01T19:26:52.454Z,16.47
2022-12-01T19:29:21.292Z,16.93
2022-12-01T19:31:50.817Z,16.63
2022-12-01T19:34:19.634Z,16.83
2022-12-01T19:36:49.806Z,16.70
2022-12-01T19:39:18.475Z,16.90
2022-12-01T19:41:48.681Z,17.17
2022-12-01T19:44:17.049Z,18.03
2022-12-01T19:46:46.153Z,18.17
2022-12-01T19:49:14.817Z,16.90
2022-12-01T19:51:43.632Z,19.00
2022-12-01T19:54:16.472Z,18.47
2022-12-01T19:56:45.954Z,17.70
2022-12-01T19:59:16.616Z,18.97
2022-12-01T20:01:45.340Z,18.13
2022-12-01T20:04:14.197Z,18.63
2022-12-01T20:06:43.201Z,19.17
2022-12-01T20:09:12.490Z,19.30
2022-12-01T20:11:41.802Z,21.27
2022-12-01T20:14:11.689Z,29.37
2022-12-01T20:16:41.999Z,22.53
2022-12-01T20:19:12.606Z,19.17
2022-12-01T20:21:43.223Z,20.77
2022-12-01T20:24:14.035Z,22.30
2022-12-01T20:26:44.555Z,18.97
2022-12-01T20:29:15.246Z,18.07
2022-12-01T20:31:45.750Z,19.57
2022-12-01T20:34:16.328Z,20.33
2022-12-01T20:36:45.266Z,20.67
2022-12-01T20:39:14.616Z,19.60
2022-12-01T20:41:43.830Z,19.53
2022-12-01T20:44:12.934Z,19.73
2022-12-01T20:46:42.185Z,19.23
2022-12-01T20:49:12.436Z,19.60
2022-12-01T20:51:41.214Z,19.93
2022-12-01T20:54:27.787Z,19.80
2022-12-01T20:56:57.552Z,18.20
2022-12-01T20:59:26.896Z,19.33
2022-12-01T21:01:55.781Z,18.73
2022-12-01T21:04:26.106Z,19.17
2022-12-01T21:06:56.937Z,20.00
2022-12-01T21:09:25.874Z,21.17
2022-12-01T21:12:08.456Z,20.93
2022-12-01T21:14:39.410Z,20.77
2022-12-01T21:17:17.390Z,18.60
2022-12-01T21:19:51.523Z,20.47
2022-12-01T21:22:20.399Z,20.03
2022-12-01T21:24:51.870Z,19.57
2022-12-01T21:27:20.748Z,19.57
2022-12-01T21:29:50.543Z,19.53
2022-12-01T21:32:20.743Z,19.80
2022-12-01T21:34:51.164Z,19.90
2022-12-01T21:37:23.071Z,20.00
2022-12-01T21:39:54.103Z,19.80
2022-12-01T21:42:25.547Z,20.30
2022-12-01T21:44:54.470Z,20.00
2022-12-01T21:47:24.494Z,17.57
2022-12-01T21:49:57.080Z,19.60
2022-12-01T21:52:30.341Z,19.83
2022-12-01T21:55:02.674Z,19.83
2022-12-01T21:57:42.383Z,19.83
2022-12-01T22:00:27.791Z,19.87
2022-12-01T22:03:05.577Z,20.97
2022-12-01T22:05:38.842Z,18.90
2022-12-01T22:08:13.711Z,19.17
2022-12-01T22:11:00.582Z,19.50
2022-12-01T22:13:37.599Z,19.13
2022-12-01T22:16:08.845Z,19.33
2022-12-01T22:18:39.222Z,20.13
2022-12-01T22:21:29.568Z,19.43
2022-12-01T22:24:02.352Z,18.27
2022-12-01T22:26:30.858Z,20.73
2022-12-01T22:29:00.235Z,19.03
2022-12-01T22:31:29.311Z,19.57
2022-12-01T22:34:03.319Z,18.70
2022-12-01T22:36:34.379Z,20.47
2022-12-01T22:39:02.870Z,20.57
2022-12-01T22:41:31.566Z,20.40
2022-12-01T22:44:01.504Z,20.77
2022-12-01T22:46:32.639Z,21.33
2022-12-01T22:49:04.150Z,21.30
2022-12-01T22:51:43.568Z,20.87
2022-12-01T22:54:30.477Z,20.53
2022-12-01T22:57:25.159Z,20.20
2022-12-01T22:59:54.166Z,20.73
2022-12-01T23:02:23.977Z,19.60
2022-12-01T23:04:55.529Z,18.57
2022-12-01T23:07:34.385Z,19.23
2022-12-01T23:10:14.247Z,19.77
2022-12-01T23:12:43.340Z,20.13
2022-12-01T23:15:23.196Z,19.70
2022-12-01T23:17:52.650Z,19.23
2022-12-01T23:20:30.872Z,19.70
2022-12-01T23:23:02.864Z,19.17
2022-12-01T23:25:32.453Z,17.97
2022-12-01T23:28:03.221Z,19.83
2022-12-01T23:30:31.799Z,19.80
2022-12-01T23:33:18.350Z,18.57
2022-12-01T23:35:52.993Z,18.60
2022-12-01T23:38:24.981Z,18.50
2022-12-01T23:40:56.981Z,17.53
2022-12-01T23:43:27.503Z,19.00
2022-12-01T23:46:04.811Z,19.17
2022-12-01T23:48:37.782Z,16.50
2022-12-01T23:51:14.580Z,20.03
2022-12-01T23:53:45.027Z,18.83
2022-12-01T23:56:16.065Z,18.57
2022-12-01T23:58:45.083Z,16.57
